Time;durP1;ratioP1;P1;durP2;ratioP2;P2;SDS_P1;SDS_P2;PMS_P1;PMS_P2;Temp;Humidity;BMP_temperature;BMP_pressure;BME280_temperature;BME280_humidity;BME280_pressure;Samples;Min_cycle;Max_cycle;Signal;HPM_P1;HPM_P2
2023/04/28 04:00:54;;;;;;;1.97;1.37;;;15.10;68.60;;;;;;5851514;23;20565;-73
2023/04/28 04:03:24;;;;;;;1.90;1.20;;;14.80;68.90;;;;;;4977360;28;20496;-73
2023/04/28 04:05:52;;;;;;;2.20;1.20;;;14.60;69.00;;;;;;4976963;28;20911;-72
2023/04/28 04:08:19;;;;;;;1.80;1.30;;;14.50;70.00;;;;;;4977035;28;20497;-72
2023/04/28 04:10:45;;;;;;;2.40;1.50;;;14.50;70.00;;;;;;4976894;28;20490;-74
2023/04/28 04:13:12;;;;;;;2.83;1.53;;;14.30;70.90;;;;;;4977066;28;20504;-73
2023/04/28 04:15:39;;;;;;;2.07;1.47;;;14.40;71.10;;;;;;5001237;23;20549;-71
2023/04/28 04:18:07;;;;;;;3.00;1.73;;;14.40;71.10;;;;;;4978111;28;20517;-71
2023/04/28 04:20:33;;;;;;;1.97;1.30;;;14.40;70.70;;;;;;4977077;28;20936;-71
2023/04/28 04:23:00;;;;;;;2.33;1.70;;;14.50;71.10;;;;;;4977978;28;20450;-71
2023/04/28 04:25:27;;;;;;;2.20;1.40;;;14.40;70.90;;;;;;4977543;28;20472;-71
2023/04/28 04:27:53;;;;;;;2.03;1.30;;;14.30;71.40;;;;;;4977480;28;20833;-71
2023/04/28 04:30:20;;;;;;;2.90;1.60;;;14.30;71.70;;;;;;4977568;28;20963;-70
2023/04/28 04:32:47;;;;;;;2.73;1.70;;;14.10;72.30;;;;;;4977736;28;20446;-71
2023/04/28 04:35:15;;;;;;;2.20;1.80;;;14.00;73.30;;;;;;4977779;28;20502;-72
2023/04/28 04:37:42;;;;;;;1.90;1.33;;;13.90;73.70;;;;;;4977727;28;20447;-72
2023/04/28 04:40:09;;;;;;;2.40;1.40;;;13.90;74.10;;;;;;4977843;28;20446;-72
2023/04/28 04:42:36;;;;;;;2.20;1.53;;;14.00;74.50;;;;;;4977482;28;20509;-72
2023/04/28 04:45:02;;;;;;;2.03;1.40;;;14.10;75.60;;;;;;4977505;28;20461;-72
2023/04/28 04:47:29;;;;;;;2.37;1.57;;;14.10;75.60;;;;;;4976933;28;20438;-71
2023/04/28 04:49:56;;;;;;;2.20;1.50;;;14.10;76.20;;;;;;4976824;28;20446;-72
2023/04/28 04:52:24;;;;;;;2.30;1.33;;;14.20;76.40;;;;;;4976774;28;20525;-72
2023/04/28 04:54:51;;;;;;;1.97;1.40;;;14.20;77.10;;;;;;4977420;28;20477;-71
2023/04/28 04:57:17;;;;;;;2.20;1.50;;;13.90;78.30;;;;;;4976974;28;20967;-71
2023/04/28 04:59:44;;;;;;;2.50;1.60;;;13.80;80.00;;;;;;4977201;28;20497;-71
2023/04/28 05:02:11;;;;;;;2.70;1.80;;;13.70;80.90;;;;;;4976953;28;20503;-71
2023/04/28 05:04:38;;;;;;;3.30;1.90;;;13.50;82.10;;;;;;4977077;28;20470;-72
2023/04/28 05:07:04;;;;;;;2.10;1.80;;;13.60;82.70;;;;;;4976662;28;20872;-71
2023/04/28 05:09:32;;;;;;;2.60;2.00;;;13.70;82.90;;;;;;4977023;28;20462;-71
2023/04/28 05:11:59;;;;;;;3.07;1.90;;;13.50;83.20;;;;;;4976440;28;20486;-72
2023/04/28 05:14:26;;;;;;;2.00;1.70;;;13.60;83.60;;;;;;4976477;28;20593;-71
2023/04/28 05:16:53;;;;;;;2.07;1.40;;;13.60;84.10;;;;;;4976005;28;21003;-72
2023/04/28 05:19:19;;;;;;;2.30;1.70;;;13.70;83.60;;;;;;4976423;28;20823;-71
2023/04/28 05:21:47;;;;;;;2.60;1.80;;;13.70;84.30;;;;;;4976235;28;20869;-72
2023/04/28 05:24:14;;;;;;;2.10;1.57;;;13.70;84.20;;;;;;4976281;28;20497;-72
2023/04/28 05:26:42;;;;;;;2.30;1.70;;;13.70;84.30;;;;;;4976537;28;20509;-71
2023/04/28 05:29:08;;;;;;;2.27;1.53;;;13.50;85.20;;;;;;4976492;28;20446;-72
2023/04/28 05:31:35;;;;;;;2.40;1.60;;;13.60;85.60;;;;;;4976816;28;20490;-72
2023/04/28 05:34:01;;;;;;;2.50;1.70;;;13.70;85.40;;;;;;4976466;28;20529;-72
2023/04/28 05:36:28;;;;;;;2.00;1.50;;;13.70;85.00;;;;;;4976471;28;20454;-72
2023/04/28 05:38:55;;;;;;;2.17;1.63;;;13.90;85.00;;;;;;4975864;28;20482;-72
2023/04/28 05:41:22;;;;;;;3.17;1.60;;;14.10;84.40;;;;;;4976347;28;20504;-72
2023/04/28 05:43:50;;;;;;;2.20;1.50;;;14.10;83.90;;;;;;4976140;28;20462;-72
2023/04/28 05:46:16;;;;;;;2.73;1.70;;;14.10;83.70;;;;;;4975730;28;20944;-71
2023/04/28 05:48:43;;;;;;;2.20;1.70;;;13.90;84.70;;;;;;4976150;28;20873;-71
2023/04/28 05:51:10;;;;;;;3.20;1.70;;;13.70;85.00;;;;;;4975519;28;20486;-72
2023/04/28 05:53:37;;;;;;;2.60;1.60;;;13.70;85.50;;;;;;4975877;28;20497;-71
2023/04/28 05:56:03;;;;;;;2.13;1.60;;;13.80;85.20;;;;;;4975920;28;20532;-72
2023/04/28 05:58:30;;;;;;;2.40;2.00;;;13.60;85.80;;;;;;4975139;28;20521;-71
2023/04/28 06:00:58;;;;;;;2.50;1.63;;;13.60;86.20;;;;;;4975651;28;20450;-72
2023/04/28 06:03:25;;;;;;;4.73;1.70;;;13.60;86.30;;;;;;4975833;28;20504;-72
2023/04/28 06:05:52;;;;;;;2.40;1.60;;;13.70;86.40;;;;;;4975495;28;20569;-71
2023/04/28 06:08:19;;;;;;;1.90;1.40;;;13.70;86.00;;;;;;4975811;28;20454;-71
2023/04/28 06:10:46;;;;;;;3.00;1.80;;;13.70;86.40;;;;;;4975631;28;20439;-71
2023/04/28 06:13:12;;;;;;;2.40;2.00;;;13.60;86.60;;;;;;4975519;28;20485;-71
2023/04/28 06:15:39;;;;;;;2.27;1.60;;;13.40;87.30;;;;;;4975466;28;20486;-72
2023/04/28 06:18:08;;;;;;;2.20;1.40;;;13.60;87.50;;;;;;4975858;28;20450;-71
2023/04/28 06:20:35;;;;;;;2.23;1.43;;;13.50;87.50;;;;;;4976297;28;20994;-70
2023/04/28 06:23:03;;;;;;;2.10;1.50;;;13.60;87.50;;;;;;4976991;28;20473;-72
2023/04/28 06:25:30;;;;;;;2.50;1.83;;;13.70;87.10;;;;;;4977096;28;20520;-72
2023/04/28 06:27:56;;;;;;;2.53;1.57;;;13.70;86.80;;;;;;4976040;28;20458;-71
2023/04/28 06:30:23;;;;;;;2.10;1.53;;;13.70;86.60;;;;;;4975723;28;20439;-71
2023/04/28 06:32:50;;;;;;;2.40;1.77;;;13.70;87.10;;;;;;4976101;28;20490;-71
2023/04/28 06:35:18;;;;;;;2.10;1.63;;;13.60;87.70;;;;;;4975934;28;20991;-71
2023/04/28 06:37:45;;;;;;;3.00;1.80;;;13.80;87.40;;;;;;4975799;28;20442;-71
2023/04/28 06:40:11;;;;;;;2.00;1.33;;;13.70;86.80;;;;;;4975861;28;20450;-71
2023/04/28 06:42:38;;;;;;;2.47;1.53;;;13.80;87.10;;;;;;4975444;28;20451;-71
2023/04/28 06:45:05;;;;;;;2.20;1.50;;;13.70;87.60;;;;;;4974532;28;20474;-72
2023/04/28 06:47:32;;;;;;;2.30;1.90;;;13.80;87.40;;;;;;4974440;28;20446;-71
2023/04/28 06:50:00;;;;;;;2.30;1.50;;;13.70;87.30;;;;;;4974338;28;20538;-72
2023/04/28 06:52:29;;;;;;;2.30;1.80;;;13.70;87.80;;;;;;4974323;28;20478;-72
2023/04/28 06:54:56;;;;;;;2.10;1.57;;;13.90;87.40;;;;;;4974234;28;20658;-73
2023/04/28 06:57:22;;;;;;;2.20;1.50;;;13.80;87.80;;;;;;4974718;28;20453;-73
2023/04/28 06:59:49;;;;;;;2.47;1.60;;;13.70;87.90;;;;;;4974442;28;20504;-73
2023/04/28 07:02:16;;;;;;;2.20;1.73;;;13.70;88.70;;;;;;4974420;28;20454;-73
2023/04/28 07:04:42;;;;;;;2.43;1.60;;;13.70;87.90;;;;;;4974094;28;20532;-73
2023/04/28 07:07:09;;;;;;;2.30;1.60;;;13.80;88.70;;;;;;4973906;28;21026;-73
2023/04/28 07:09:37;;;;;;;2.40;1.80;;;14.00;87.90;;;;;;4974284;28;20454;-72
2023/04/28 07:12:04;;;;;;;2.03;1.50;;;13.90;87.20;;;;;;4977853;28;20478;-73
2023/04/28 07:14:31;;;;;;;2.47;1.53;;;13.80;87.80;;;;;;4977703;28;20490;-73
2023/04/28 07:16:58;;;;;;;2.20;1.80;;;13.80;88.00;;;;;;4978029;28;20434;-72
2023/04/28 07:19:25;;;;;;;2.20;1.47;;;13.90;88.30;;;;;;4977922;28;20446;-72
2023/04/28 07:21:51;;;;;;;2.40;1.70;;;13.90;87.80;;;;;;4977551;28;20509;-71
2023/04/28 07:24:18;;;;;;;1.83;1.30;;;13.90;88.30;;;;;;4977753;28;20524;-73
2023/04/28 07:26:46;;;;;;;2.60;1.40;;;13.90;88.00;;;;;;4977799;28;20446;-72
2023/04/28 07:29:14;;;;;;;2.10;1.30;;;13.80;88.40;;;;;;4977723;28;20450;-73
2023/04/28 07:31:40;;;;;;;2.70;1.67;;;13.80;88.50;;;;;;4977506;28;20482;-72
2023/04/28 07:34:07;;;;;;;1.93;1.43;;;14.00;88.20;;;;;;4977740;28;20521;-72
2023/04/28 07:36:35;;;;;;;2.40;1.60;;;14.00;87.60;;;;;;4977900;28;20486;-72
2023/04/28 07:39:02;;;;;;;2.20;1.70;;;13.90;88.30;;;;;;4977581;28;20450;-72
2023/04/28 07:41:28;;;;;;;2.50;1.60;;;13.90;88.60;;;;;;4977242;28;20955;-73
2023/04/28 07:43:56;;;;;;;2.40;1.67;;;13.90;88.30;;;;;;4977935;28;20462;-72
2023/04/28 07:46:23;;;;;;;2.30;1.60;;;13.70;88.80;;;;;;4977572;28;20455;-72
2023/04/28 07:48:50;;;;;;;2.20;1.40;;;13.70;89.50;;;;;;4977339;28;20970;-73
2023/04/28 07:51:17;;;;;;;2.20;1.50;;;13.70;89.70;;;;;;4977596;28;20449;-73
2023/04/28 07:53:43;;;;;;;2.00;1.37;;;13.90;89.60;;;;;;4977123;28;20903;-72
2023/04/28 07:56:11;;;;;;;4.40;1.87;;;13.90;89.50;;;;;;4977285;28;20462;-72
2023/04/28 07:58:37;;;;;;;2.00;1.53;;;13.70;89.80;;;;;;4977023;28;20835;-73
2023/04/28 08:01:05;;;;;;;2.30;1.70;;;13.90;90.20;;;;;;4977318;28;20455;-73
2023/04/28 08:03:32;;;;;;;2.63;1.70;;;14.00;89.20;;;;;;4977360;28;20446;-72
2023/04/28 08:05:59;;;;;;;3.17;1.40;;;14.00;89.50;;;;;;4977132;28;20521;-73
2023/04/28 08:08:25;;;;;;;2.40;1.70;;;14.10;89.70;;;;;;4977252;28;20454;-73
2023/04/28 08:10:53;;;;;;;2.90;2.00;;;14.20;89.80;;;;;;4977154;28;20450;-71
2023/04/28 08:13:20;;;;;;;3.10;1.67;;;14.10;90.10;;;;;;4977005;28;20481;-73
2023/04/28 08:15:47;;;;;;;2.20;1.40;;;14.20;89.80;;;;;;4976667;28;20513;-73
2023/04/28 08:18:15;;;;;;;2.73;1.77;;;14.20;90.10;;;;;;4976967;28;20450;-73
2023/04/28 08:20:42;;;;;;;2.53;1.87;;;14.30;90.00;;;;;;4976721;28;20947;-73
2023/04/28 08:23:09;;;;;;;2.40;1.93;;;14.30;90.50;;;;;;4975509;28;21055;-73
2023/04/28 08:25:36;;;;;;;2.67;1.80;;;14.40;90.40;;;;;;4976872;28;20478;-72
2023/04/28 08:28:03;;;;;;;1.93;1.47;;;14.40;89.80;;;;;;4976597;28;20458;-73
2023/04/28 08:30:29;;;;;;;2.20;1.60;;;14.50;90.70;;;;;;4976591;28;20460;-73
2023/04/28 08:32:56;;;;;;;2.30;1.80;;;14.40;90.40;;;;;;4976586;28;20486;-73
2023/04/28 08:35:25;;;;;;;2.87;1.90;;;14.40;91.10;;;;;;4976543;28;20474;-73
2023/04/28 08:37:52;;;;;;;2.40;2.20;;;14.50;90.90;;;;;;4976386;28;20891;-73
2023/04/28 08:40:19;;;;;;;3.43;1.70;;;14.50;90.70;;;;;;4976502;28;20449;-73
2023/04/28 08:42:46;;;;;;;2.70;2.00;;;14.60;90.80;;;;;;4976425;28;20477;-73
2023/04/28 08:45:14;;;;;;;2.20;1.50;;;14.40;91.00;;;;;;4976061;28;20529;-73
2023/04/28 08:47:44;;;;;;;2.43;1.97;;;14.40;92.10;;;;;;4976339;28;20537;-73
2023/04/28 08:50:12;;;;;;;3.07;2.00;;;14.60;91.90;;;;;;4976255;28;20455;-73
2023/04/28 08:52:41;;;;;;;2.47;1.70;;;14.70;90.80;;;;;;4976260;28;21003;-73
2023/04/28 08:55:11;;;;;;;2.23;1.80;;;14.50;91.60;;;;;;4976380;28;20525;-73
2023/04/28 08:57:40;;;;;;;2.23;1.77;;;14.50;91.50;;;;;;4976856;28;20509;-73
2023/04/28 09:00:07;;;;;;;2.53;1.90;;;14.40;92.10;;;;;;4976147;28;20489;-73
2023/04/28 09:02:36;;;;;;;2.37;2.17;;;14.60;92.20;;;;;;4976125;28;20484;-73
2023/04/28 09:05:03;;;;;;;2.47;1.70;;;14.80;91.80;;;;;;4975916;28;20832;-73
2023/04/28 09:07:30;;;;;;;2.30;1.83;;;14.70;91.40;;;;;;4975969;28;20578;-73
2023/04/28 09:10:18;;;;;;;2.90;1.70;;;14.90;91.60;;;;;;4975560;28;20936;-73
2023/04/28 09:12:45;;;;;;;2.47;1.73;;;15.10;90.50;;;;;;4975561;28;20501;-73
2023/04/28 09:15:25;;;;;;;2.40;1.90;;;15.20;90.50;;;;;;4975652;28;20581;-73
2023/04/28 09:17:52;;;;;;;4.63;1.90;;;15.30;90.10;;;;;;4975855;28;20442;-73
2023/04/28 09:20:21;;;;;;;2.23;1.80;;;15.30;89.80;;;;;;4975727;28;20537;-73
2023/04/28 09:22:48;;;;;;;2.30;1.80;;;15.20;89.90;;;;;;4975707;28;20495;-73
2023/04/28 09:25:17;;;;;;;2.40;1.60;;;15.00;90.70;;;;;;4975605;28;20466;-73
2023/04/28 09:27:44;;;;;;;2.33;1.97;;;15.20;91.40;;;;;;4975607;28;20458;-73
2023/04/28 09:30:12;;;;;;;2.50;1.63;;;15.40;90.80;;;;;;4975867;28;20454;-73
2023/04/28 09:32:38;;;;;;;6.30;2.13;;;15.60;89.50;;;;;;4975381;28;20528;-73
2023/04/28 09:35:06;;;;;;;2.27;1.50;;;15.50;89.70;;;;;;4975429;28;20504;-72
2023/04/28 09:37:34;;;;;;;2.03;1.50;;;15.70;89.40;;;;;;4975740;28;20446;-73
2023/04/28 09:40:06;;;;;;;2.13;1.30;;;15.50;89.40;;;;;;4975080;28;20911;-73
2023/04/28 09:42:35;;;;;;;2.03;1.20;;;15.60;90.20;;;;;;4975450;28;20485;-73
2023/04/28 09:45:02;;;;;;;2.10;1.33;;;15.80;89.80;;;;;;4975269;28;20465;-73
2023/04/28 09:47:31;;;;;;;2.20;1.50;;;15.90;90.50;;;;;;4975167;28;20450;-73
2023/04/28 09:50:01;;;;;;;1.90;1.17;;;15.90;89.70;;;;;;4975225;28;20500;-72
2023/04/28 09:52:28;;;;;;;1.90;1.20;;;16.00;90.00;;;;;;4975339;28;20481;-73
2023/04/28 09:54:57;;;;;;;2.53;1.00;;;16.20;90.10;;;;;;4975108;28;20474;-73
2023/04/28 09:57:23;;;;;;;1.90;1.00;;;16.30;89.80;;;;;;4975609;28;20450;-73
2023/04/28 09:59:53;;;;;;;1.90;1.20;;;16.60;89.80;;;;;;4975102;28;20485;-73
2023/04/28 10:02:22;;;;;;;1.97;1.20;;;16.90;90.80;;;;;;4975057;28;20442;-72
2023/04/28 10:04:51;;;;;;;2.07;1.10;;;17.00;89.10;;;;;;4975156;28;20470;-73
2023/04/28 10:07:19;;;;;;;1.90;1.20;;;17.20;88.30;;;;;;4976929;28;20963;-72
2023/04/28 10:09:49;;;;;;;1.80;1.00;;;17.30;88.00;;;;;;4978135;28;20452;-72
2023/04/28 10:12:16;;;;;;;1.70;1.00;;;17.50;88.30;;;;;;4977087;28;20966;-73
2023/04/28 10:14:43;;;;;;;2.83;1.33;;;17.70;87.10;;;;;;4991854;23;20587;-73
2023/04/28 10:17:13;;;;;;;1.60;0.80;;;17.80;86.70;;;;;;4975039;28;20496;-73
2023/04/28 10:19:40;;;;;;;1.80;0.90;;;17.80;86.00;;;;;;4975121;28;20442;-74
2023/04/28 10:22:24;;;;;;;1.53;0.80;;;17.90;86.70;;;;;;4974916;28;20497;-73
2023/04/28 10:25:21;;;;;;;1.60;0.80;;;17.80;85.40;;;;;;4974725;28;20462;-73
2023/04/28 10:27:49;;;;;;;1.57;0.80;;;17.90;86.00;;;;;;4970405;28;20462;-71
2023/04/28 10:30:17;;;;;;;2.13;1.00;;;18.00;86.00;;;;;;4974717;28;20446;-74
2023/04/28 10:32:45;;;;;;;1.60;0.80;;;18.10;84.90;;;;;;4974858;28;20525;-74
2023/04/28 10:35:41;;;;;;;1.90;0.83;;;18.20;85.30;;;;;;4974521;28;20505;-74
2023/04/28 10:38:09;;;;;;;2.20;0.80;;;18.20;84.40;;;;;;4974594;28;20454;-74
2023/04/28 10:40:37;;;;;;;1.50;0.70;;;18.20;84.60;;;;;;4974521;28;20447;-73
2023/04/28 10:43:05;;;;;;;1.60;0.70;;;18.20;84.40;;;;;;4974551;28;20446;-73
2023/04/28 10:45:59;;;;;;;1.50;0.70;;;18.20;84.30;;;;;;4977598;28;20492;-76
2023/04/28 10:48:53;;;;;;;1.40;0.60;;;18.10;83.50;;;;;;4981049;28;20521;-73
2023/04/28 10:51:33;;;;;;;1.47;0.60;;;18.10;83.80;;;;;;4980921;28;20446;-74
2023/04/28 10:54:16;;;;;;;1.87;1.03;;;18.00;83.90;;;;;;4981587;28;20975;-71
2023/04/28 10:57:14;;;;;;;1.53;0.80;;;18.20;84.50;;;;;;4980746;28;20882;-73
2023/04/28 10:59:41;;;;;;;1.40;0.60;;;18.40;84.10;;;;;;4980497;28;20871;-73
2023/04/28 11:02:48;;;;;;;1.40;0.60;;;18.30;82.20;;;;;;4980898;28;20899;-74
2023/04/28 11:05:19;;;;;;;1.93;0.70;;;18.50;82.30;;;;;;4981204;28;20866;-73
2023/04/28 11:08:29;;;;;;;1.40;0.60;;;18.60;81.60;;;;;;4981225;28;20444;-75
2023/04/28 11:11:21;;;;;;;1.60;0.60;;;18.60;81.30;;;;;;4980985;28;20505;-75
2023/04/28 11:13:49;;;;;;;1.80;0.70;;;18.70;82.20;;;;;;4966798;28;20525;-75
2023/04/28 11:16:18;;;;;;;1.50;0.60;;;19.00;82.80;;;;;;4980555;28;20481;-74
2023/04/28 11:19:03;;;;;;;1.40;0.60;;;19.30;82.50;;;;;;4980976;28;20452;-75
2023/04/28 11:21:33;;;;;;;1.40;0.63;;;19.40;80.00;;;;;;4980341;28;20469;-74
2023/04/28 11:24:00;;;;;;;1.50;0.60;;;19.40;80.30;;;;;;4980897;28;20442;-72
2023/04/28 11:26:28;;;;;;;1.77;1.20;;;19.50;80.00;;;;;;4980602;28;20525;-74
2023/04/28 11:28:57;;;;;;;2.07;0.70;;;19.30;78.70;;;;;;4980369;28;21026;-75
2023/04/28 11:31:25;;;;;;;1.60;1.00;;;19.10;79.30;;;;;;4980414;28;20939;-75
2023/04/28 11:33:58;;;;;;;1.40;0.60;;;19.20;80.50;;;;;;4980906;28;20486;-76
2023/04/28 11:36:27;;;;;;;1.80;0.70;;;19.40;78.70;;;;;;4980554;28;20540;-74
2023/04/28 11:38:56;;;;;;;1.40;0.70;;;19.40;78.40;;;;;;4980530;28;20495;-74
2023/04/28 11:41:23;;;;;;;1.70;0.93;;;19.50;77.40;;;;;;4980459;28;20489;-74
2023/04/28 11:43:50;;;;;;;1.97;0.73;;;19.80;78.20;;;;;;4980546;28;20449;-74
2023/04/28 11:46:18;;;;;;;1.50;0.70;;;20.10;78.00;;;;;;4980476;28;20474;-74
2023/04/28 11:48:44;;;;;;;1.87;0.60;;;19.90;74.10;;;;;;4980498;28;20542;-75
2023/04/28 11:51:31;;;;;;;2.00;0.60;;;19.80;75.10;;;;;;4980387;28;20450;-75
2023/04/28 11:53:59;;;;;;;1.40;0.60;;;19.30;76.20;;;;;;4980407;28;20509;-76
2023/04/28 11:56:26;;;;;;;1.40;0.60;;;19.20;75.90;;;;;;4979791;28;20470;-76
2023/04/28 11:59:04;;;;;;;1.40;0.60;;;19.20;76.40;;;;;;4977399;28;20466;-76
2023/04/28 12:01:31;;;;;;;1.50;0.60;;;19.10;76.40;;;;;;4977241;28;20456;-73
2023/04/28 12:03:58;;;;;;;1.40;0.60;;;19.10;75.70;;;;;;4977267;28;20447;-75
2023/04/28 12:06:25;;;;;;;1.33;0.57;;;19.10;76.00;;;;;;4977090;28;20481;-74
2023/04/28 12:08:52;;;;;;;1.40;0.60;;;19.10;75.30;;;;;;4977174;28;20504;-74
2023/04/28 12:11:20;;;;;;;1.40;0.60;;;19.10;76.40;;;;;;4977345;28;20450;-75
2023/04/28 12:14:02;;;;;;;1.40;0.60;;;19.20;76.00;;;;;;4976950;28;20482;-76
2023/04/28 12:16:42;;;;;;;1.50;0.70;;;19.10;76.00;;;;;;4976630;28;20529;-73
2023/04/28 12:19:10;;;;;;;2.40;0.80;;;19.10;76.00;;;;;;4977126;28;20434;-71
2023/04/28 12:21:38;;;;;;;1.40;0.63;;;19.20;76.00;;;;;;4976838;28;20486;-75
2023/04/28 12:24:20;;;;;;;1.60;0.90;;;19.30;76.30;;;;;;4976614;28;20447;-75
2023/04/28 12:26:48;;;;;;;1.80;0.60;;;19.30;76.00;;;;;;4976908;28;20458;-75
2023/04/28 12:29:40;;;;;;;1.43;0.60;;;19.30;75.00;;;;;;4976806;28;20453;-72
2023/04/28 12:32:09;;;;;;;1.50;0.70;;;19.50;76.60;;;;;;4977137;28;20446;-74
2023/04/28 12:34:38;;;;;;;1.40;0.60;;;19.70;74.80;;;;;;4976627;28;20482;-74
2023/04/28 12:37:05;;;;;;;1.40;0.60;;;19.70;74.30;;;;;;4977599;28;20462;-74
2023/04/28 12:39:33;;;;;;;3.30;0.67;;;19.60;75.10;;;;;;4976753;28;20450;-74
2023/04/28 12:42:02;;;;;;;1.40;0.60;;;19.70;74.70;;;;;;4976451;28;20497;-72
2023/04/28 12:44:34;;;;;;;1.60;0.77;;;19.60;73.40;;;;;;4976346;28;20450;-74
2023/04/28 12:47:01;;;;;;;1.60;0.60;;;19.70;74.50;;;;;;4976576;28;20505;-74
2023/04/28 12:49:28;;;;;;;1.50;0.70;;;19.90;74.70;;;;;;4976621;28;20493;-76
2023/04/28 12:51:55;;;;;;;1.40;0.60;;;20.10;72.30;;;;;;4975986;28;20861;-75
2023/04/28 12:54:21;;;;;;;1.50;0.60;;;20.00;71.10;;;;;;4976200;28;20889;-75
2023/04/28 12:56:49;;;;;;;1.50;0.70;;;19.60;71.80;;;;;;4976248;28;20450;-74
2023/04/28 12:59:17;;;;;;;1.40;0.60;;;19.40;72.20;;;;;;4975920;28;20885;-74
2023/04/28 13:01:43;;;;;;;1.70;0.60;;;19.30;74.00;;;;;;4976287;28;20450;-74
2023/04/28 13:04:11;;;;;;;1.80;0.70;;;19.10;73.10;;;;;;4975923;28;20447;-74
2023/04/28 13:06:39;;;;;;;1.40;0.70;;;18.90;74.80;;;;;;4976100;28;20470;-74
2023/04/28 13:09:06;;;;;;;1.50;0.63;;;19.00;74.60;;;;;;4975692;28;20548;-75
2023/04/28 13:11:32;;;;;;;1.50;0.60;;;18.90;75.10;;;;;;4976040;28;20445;-74
2023/04/28 13:13:59;;;;;;;1.50;0.67;;;18.80;73.90;;;;;;4975784;28;20482;-73
2023/04/28 13:16:29;;;;;;;1.50;0.70;;;18.70;75.90;;;;;;4975535;28;20829;-74
2023/04/28 13:18:56;;;;;;;1.43;0.60;;;18.80;74.80;;;;;;4976132;28;20454;-75
2023/04/28 13:21:23;;;;;;;1.40;0.60;;;19.00;76.30;;;;;;4975533;28;20940;-74
2023/04/28 13:23:50;;;;;;;1.50;0.63;;;19.40;76.60;;;;;;4975764;28;20447;-75
2023/04/28 13:26:18;;;;;;;2.70;0.70;;;19.60;72.60;;;;;;4975464;28;21050;-74
2023/04/28 13:28:45;;;;;;;1.60;0.70;;;19.70;72.30;;;;;;4975725;28;20457;-74
2023/04/28 13:31:12;;;;;;;1.47;0.70;;;19.70;72.40;;;;;;4975658;28;20843;-76
2023/04/28 13:33:40;;;;;;;1.40;0.60;;;20.00;72.30;;;;;;4975533;28;20493;-76
2023/04/28 13:36:08;;;;;;;1.40;0.60;;;20.20;71.10;;;;;;4975411;28;20478;-74
2023/04/28 13:38:35;;;;;;;1.40;0.60;;;20.00;70.20;;;;;;4975418;28;20454;-75
2023/04/28 13:41:01;;;;;;;2.33;0.70;;;19.90;71.80;;;;;;4975345;28;20449;-74
2023/04/28 13:43:28;;;;;;;1.50;0.60;;;19.80;70.80;;;;;;4975391;28;20446;-74
2023/04/28 13:45:55;;;;;;;1.47;0.60;;;19.70;71.90;;;;;;4974942;28;20983;-74
2023/04/28 13:48:22;;;;;;;4.37;0.70;;;19.50;72.00;;;;;;4975247;28;20446;-74
2023/04/28 13:50:50;;;;;;;1.50;0.70;;;19.30;73.60;;;;;;4975158;28;20458;-74
2023/04/28 13:53:16;;;;;;;1.50;0.80;;;19.30;73.50;;;;;;4975146;28;20454;-74
2023/04/28 13:55:44;;;;;;;1.47;0.60;;;19.30;74.60;;;;;;4974983;28;20560;-74
2023/04/28 13:58:10;;;;;;;1.63;0.70;;;19.30;74.00;;;;;;4975087;28;20458;-74
2023/04/28 14:00:38;;;;;;;1.40;0.60;;;19.30;74.00;;;;;;4975038;28;20447;-73
2023/04/28 14:03:05;;;;;;;1.70;0.67;;;19.30;75.80;;;;;;4974946;28;20540;-74
2023/04/28 14:05:31;;;;;;;1.50;0.60;;;19.30;75.30;;;;;;4974870;28;20470;-74
2023/04/28 14:08:00;;;;;;;1.60;0.70;;;19.10;76.40;;;;;;4974932;28;20496;-74
2023/04/28 14:10:27;;;;;;;1.43;0.60;;;19.20;76.60;;;;;;4974843;28;20457;-74
2023/04/28 14:12:53;;;;;;;1.87;0.70;;;19.10;77.00;;;;;;4974941;28;20909;-74
2023/04/28 14:15:20;;;;;;;1.40;0.67;;;18.80;77.60;;;;;;4974304;28;21000;-75
2023/04/28 14:17:48;;;;;;;1.40;0.63;;;18.70;78.70;;;;;;4974764;28;20485;-74
2023/04/28 14:20:16;;;;;;;1.50;0.60;;;18.60;79.50;;;;;;4973911;28;20451;-74
2023/04/28 14:22:43;;;;;;;1.40;0.60;;;18.60;80.30;;;;;;4974924;28;20446;-74
2023/04/28 14:25:11;;;;;;;1.60;0.60;;;18.50;80.70;;;;;;4974596;28;20466;-73
2023/04/28 14:27:38;;;;;;;1.40;0.53;;;18.60;80.50;;;;;;4974634;28;20446;-73
2023/04/28 14:30:06;;;;;;;1.87;0.70;;;18.60;81.30;;;;;;4974550;28;20481;-74
2023/04/28 14:32:32;;;;;;;1.40;0.60;;;18.70;82.10;;;;;;4974605;28;20454;-74
2023/04/28 14:35:00;;;;;;;1.50;0.63;;;18.50;83.10;;;;;;4974457;28;20510;-73
2023/04/28 14:37:27;;;;;;;1.40;0.60;;;18.30;83.00;;;;;;4974578;28;20505;-75
2023/04/28 14:39:53;;;;;;;2.33;1.20;;;18.50;83.70;;;;;;4974547;28;20545;-75
2023/04/28 14:42:21;;;;;;;1.60;0.70;;;18.40;83.60;;;;;;4974440;28;20496;-70
2023/04/28 14:44:48;;;;;;;2.10;0.70;;;18.30;84.20;;;;;;4974362;28;20587;-75
2023/04/28 14:47:15;;;;;;;1.70;0.70;;;18.10;84.80;;;;;;4974444;28;20508;-76
2023/04/28 14:49:42;;;;;;;1.50;0.60;;;18.30;86.00;;;;;;4974440;28;20505;-76
2023/04/28 14:52:09;;;;;;;1.40;0.70;;;18.40;84.50;;;;;;4974423;28;20501;-75
2023/04/28 14:54:36;;;;;;;1.40;0.60;;;18.40;83.80;;;;;;4974199;28;20482;-75
2023/04/28 14:57:02;;;;;;;1.40;0.60;;;18.40;83.90;;;;;;4974298;28;20508;-74
2023/04/28 14:59:30;;;;;;;1.40;0.63;;;18.30;84.10;;;;;;4974330;28;20450;-73
2023/04/28 15:01:57;;;;;;;1.50;0.70;;;18.30;83.50;;;;;;4974436;28;20450;-75
2023/04/28 15:04:28;;;;;;;2.10;0.80;;;18.20;83.80;;;;;;4974252;28;20456;-75
2023/04/28 15:06:55;;;;;;;2.17;0.80;;;18.20;83.80;;;;;;4974351;28;20529;-75
2023/04/28 15:09:22;;;;;;;1.70;0.90;;;18.20;84.00;;;;;;4973941;28;20880;-75
2023/04/28 15:11:49;;;;;;;1.47;0.70;;;18.00;84.30;;;;;;4974112;28;20458;-74
2023/04/28 15:14:15;;;;;;;2.13;0.70;;;17.90;85.20;;;;;;4974189;28;20482;-75
2023/04/28 15:16:44;;;;;;;1.40;0.60;;;18.00;85.00;;;;;;4973782;28;20478;-74
2023/04/28 15:19:11;;;;;;;1.60;0.70;;;17.90;84.40;;;;;;4973967;28;20951;-75
2023/04/28 15:21:38;;;;;;;1.60;0.70;;;17.80;85.70;;;;;;4974245;28;20458;-75
2023/04/28 15:24:05;;;;;;;1.60;0.70;;;17.60;85.60;;;;;;4974231;28;20460;-74
2023/04/28 15:26:32;;;;;;;1.80;0.60;;;17.40;87.10;;;;;;4974486;28;20469;-74
2023/04/28 15:28:59;;;;;;;1.80;0.80;;;17.20;87.40;;;;;;4974266;28;20456;-74
2023/04/28 15:31:27;;;;;;;2.37;0.93;;;16.90;87.80;;;;;;4975286;28;20458;-74
2023/04/28 15:33:55;;;;;;;2.13;1.00;;;17.00;87.90;;;;;;4977749;28;20508;-73
2023/04/28 15:36:22;;;;;;;2.20;0.80;;;16.90;87.90;;;;;;4977954;28;20501;-74
2023/04/28 15:38:50;;;;;;;1.50;0.70;;;16.90;87.20;;;;;;4977710;28;20450;-75
2023/04/28 15:41:18;;;;;;;2.10;1.10;;;17.00;86.90;;;;;;4977265;28;21030;-74
2023/04/28 15:43:45;;;;;;;1.50;0.70;;;17.10;87.90;;;;;;4977328;28;20946;-74
2023/04/28 15:46:13;;;;;;;1.70;0.80;;;17.20;87.30;;;;;;4977572;28;20505;-74
2023/04/28 15:48:40;;;;;;;1.50;0.70;;;17.50;86.60;;;;;;4977555;28;21011;-74
2023/04/28 15:51:09;;;;;;;1.70;0.87;;;17.70;85.50;;;;;;4977479;28;20449;-74
2023/04/28 15:53:36;;;;;;;1.50;0.70;;;17.80;85.50;;;;;;4977425;28;20446;-74
2023/04/28 15:56:03;;;;;;;1.87;1.10;;;17.80;85.20;;;;;;4977327;28;20857;-74
2023/04/28 15:58:30;;;;;;;1.73;0.73;;;17.80;85.50;;;;;;4977332;28;20962;-74
2023/04/28 16:00:58;;;;;;;1.70;0.70;;;17.80;85.30;;;;;;4977291;28;20501;-74
2023/04/28 16:03:24;;;;;;;1.77;0.70;;;17.70;85.60;;;;;;4977260;28;20458;-74
2023/04/28 16:05:53;;;;;;;1.40;0.60;;;17.80;84.40;;;;;;4977177;28;20470;-74
2023/04/28 16:08:23;;;;;;;1.60;0.70;;;17.80;84.90;;;;;;4977263;28;20457;-74
2023/04/28 16:10:50;;;;;;;1.73;0.60;;;17.80;84.50;;;;;;4976883;28;20955;-74
2023/04/28 16:13:16;;;;;;;1.50;0.70;;;17.70;85.00;;;;;;4977109;28;20450;-74
2023/04/28 16:15:44;;;;;;;1.50;0.70;;;17.60;85.50;;;;;;4977519;28;20513;-74
2023/04/28 16:18:10;;;;;;;1.63;0.77;;;17.60;85.60;;;;;;4977050;28;20537;-74
2023/04/28 16:20:37;;;;;;;3.43;0.80;;;17.80;85.60;;;;;;4976662;28;20857;-74
2023/04/28 16:23:05;;;;;;;2.30;0.83;;;17.80;85.60;;;;;;4976686;28;20956;-74
2023/04/28 16:25:34;;;;;;;1.70;0.70;;;17.60;85.70;;;;;;4976840;28;20466;-74
2023/04/28 16:28:00;;;;;;;1.60;0.70;;;17.80;85.90;;;;;;4976842;28;20974;-74
2023/04/28 16:30:27;;;;;;;1.83;0.80;;;17.90;85.60;;;;;;4976904;28;20497;-73
2023/04/28 16:32:57;;;;;;;2.23;0.80;;;18.00;85.60;;;;;;4976898;28;20458;-75
2023/04/28 16:35:23;;;;;;;1.87;0.73;;;17.90;85.70;;;;;;4976627;28;20495;-73
2023/04/28 16:37:50;;;;;;;1.60;0.70;;;18.10;85.70;;;;;;4976604;28;20450;-74
2023/04/28 16:40:17;;;;;;;1.50;0.60;;;18.20;85.50;;;;;;4976634;28;20446;-75
2023/04/28 16:42:45;;;;;;;1.50;0.60;;;18.40;85.30;;;;;;4975811;28;20509;-73
2023/04/28 16:45:12;;;;;;;1.60;0.60;;;18.50;84.80;;;;;;4976497;28;20477;-74
2023/04/28 16:47:41;;;;;;;1.80;0.70;;;18.60;84.70;;;;;;4976558;28;20514;-74
2023/04/28 16:50:09;;;;;;;1.60;0.73;;;18.70;84.20;;;;;;4976547;28;20512;-74
2023/04/28 16:52:36;;;;;;;2.00;0.80;;;18.70;83.70;;;;;;4976462;28;20545;-74
2023/04/28 16:55:03;;;;;;;1.67;0.70;;;18.70;83.80;;;;;;4976238;28;20901;-74